sensor_id;sensor_type;location;lat;lon;timestamp;temperature;humidity
6146;DHT22;3104;50.348;7.620;2023-06-26T00:01:15;22.50;1.00
6146;DHT22;3104;50.348;7.620;2023-06-26T00:03:40;22.50;53.90
6146;DHT22;3104;50.348;7.620;2023-06-26T00:06:06;22.60;1.00
6146;DHT22;3104;50.348;7.620;2023-06-26T00:08:31;22.40;99.90
6146;DHT22;3104;50.348;7.620;2023-06-26T00:10:57;22.50;99.90
6146;DHT22;3104;50.348;7.620;2023-06-26T00:13:23;22.40;99.90
6146;DHT22;3104;50.348;7.620;2023-06-26T00:15:50;22.30;1.00
6146;DHT22;3104;50.348;7.620;2023-06-26T00:18:16;22.20;1.00
6146;DHT22;3104;50.348;7.620;2023-06-26T00:20:41;22.00;1.00
6146;DHT22;3104;50.348;7.620;2023-06-26T00:23:07;21.90;1.00
6146;DHT22;3104;50.348;7.620;2023-06-26T00:25:33;22.10;1.00
6146;DHT22;3104;50.348;7.620;2023-06-26T00:27:59;22.00;1.00
6146;DHT22;3104;50.348;7.620;2023-06-26T00:30:25;21.90;1.00
6146;DHT22;3104;50.348;7.620;2023-06-26T00:32:50;21.80;1.00
6146;DHT22;3104;50.348;7.620;2023-06-26T00:35:16;21.60;99.90
6146;DHT22;3104;50.348;7.620;2023-06-26T00:37:42;21.60;99.90
6146;DHT22;3104;50.348;7.620;2023-06-26T00:40:08;21.60;99.90
6146;DHT22;3104;50.348;7.620;2023-06-26T00:42:34;21.50;99.90
6146;DHT22;3104;50.348;7.620;2023-06-26T00:45:00;21.50;1.00
6146;DHT22;3104;50.348;7.620;2023-06-26T00:47:26;21.50;99.90
6146;DHT22;3104;50.348;7.620;2023-06-26T00:49:53;21.50;99.90
6146;DHT22;3104;50.348;7.620;2023-06-26T00:52:20;21.40;99.90
6146;DHT22;3104;50.348;7.620;2023-06-26T00:54:46;21.50;1.00
6146;DHT22;3104;50.348;7.620;2023-06-26T00:57:11;21.40;99.90
6146;DHT22;3104;50.348;7.620;2023-06-26T00:59:37;21.40;99.90
6146;DHT22;3104;50.348;7.620;2023-06-26T01:02:03;21.50;99.90
6146;DHT22;3104;50.348;7.620;2023-06-26T01:04:29;21.50;99.90
6146;DHT22;3104;50.348;7.620;2023-06-26T01:06:59;21.20;1.00
6146;DHT22;3104;50.348;7.620;2023-06-26T01:09:25;21.20;1.00
6146;DHT22;3104;50.348;7.620;2023-06-26T01:11:51;21.10;1.00
6146;DHT22;3104;50.348;7.620;2023-06-26T01:14:17;21.40;1.00
6146;DHT22;3104;50.348;7.620;2023-06-26T01:16:43;21.40;99.90
6146;DHT22;3104;50.348;7.620;2023-06-26T01:19:24;21.30;1.00
6146;DHT22;3104;50.348;7.620;2023-06-26T01:21:56;21.20;99.90
6146;DHT22;3104;50.348;7.620;2023-06-26T01:24:25;21.20;1.00
6146;DHT22;3104;50.348;7.620;2023-06-26T01:26:53;21.10;1.00
6146;DHT22;3104;50.348;7.620;2023-06-26T01:29:19;21.20;99.90
6146;DHT22;3104;50.348;7.620;2023-06-26T01:31:47;21.20;99.90
6146;DHT22;3104;50.348;7.620;2023-06-26T01:34:16;21.10;99.90
6146;DHT22;3104;50.348;7.620;2023-06-26T01:36:42;21.10;18.10
6146;DHT22;3104;50.348;7.620;2023-06-26T01:39:09;21.20;1.00
6146;DHT22;3104;50.348;7.620;2023-06-26T01:41:34;21.00;1.00
6146;DHT22;3104;50.348;7.620;2023-06-26T01:44:14;21.10;23.10
6146;DHT22;3104;50.348;7.620;2023-06-26T01:47:02;21.00;38.50
6146;DHT22;3104;50.348;7.620;2023-06-26T01:52:07;21.10;32.70
6146;DHT22;3104;50.348;7.620;2023-06-26T01:54:41;20.70;99.90
6146;DHT22;3104;50.348;7.620;2023-06-26T01:57:12;20.40;1.00
6146;DHT22;3104;50.348;7.620;2023-06-26T01:59:40;20.60;99.90
6146;DHT22;3104;50.348;7.620;2023-06-26T02:02:07;20.60;99.90
6146;DHT22;3104;50.348;7.620;2023-06-26T02:04:33;20.50;99.90
6146;DHT22;3104;50.348;7.620;2023-06-26T02:06:59;20.60;99.90
6146;DHT22;3104;50.348;7.620;2023-06-26T02:09:24;20.70;1.00
6146;DHT22;3104;50.348;7.620;2023-06-26T02:11:50;20.60;1.00
6146;DHT22;3104;50.348;7.620;2023-06-26T02:14:16;20.50;1.00
6146;DHT22;3104;50.348;7.620;2023-06-26T02:16:41;20.70;1.00
6146;DHT22;3104;50.348;7.620;2023-06-26T02:19:07;20.70;1.00
6146;DHT22;3104;50.348;7.620;2023-06-26T02:21:32;20.70;1.00
6146;DHT22;3104;50.348;7.620;2023-06-26T02:23:58;20.90;1.00
6146;DHT22;3104;50.348;7.620;2023-06-26T02:26:23;20.80;1.00
6146;DHT22;3104;50.348;7.620;2023-06-26T02:28:50;20.70;1.00
6146;DHT22;3104;50.348;7.620;2023-06-26T02:31:15;20.60;1.00
6146;DHT22;3104;50.348;7.620;2023-06-26T02:33:41;20.30;99.90
6146;DHT22;3104;50.348;7.620;2023-06-26T02:36:07;20.30;99.90
6146;DHT22;3104;50.348;7.620;2023-06-26T02:38:33;20.30;1.00
6146;DHT22;3104;50.348;7.620;2023-06-26T02:40:59;20.20;1.00
6146;DHT22;3104;50.348;7.620;2023-06-26T02:43:24;20.10;1.00
6146;DHT22;3104;50.348;7.620;2023-06-26T02:45:50;20.00;1.00
6146;DHT22;3104;50.348;7.620;2023-06-26T02:48:15;20.00;1.00
6146;DHT22;3104;50.348;7.620;2023-06-26T02:50:41;19.90;1.00
6146;DHT22;3104;50.348;7.620;2023-06-26T02:53:06;20.00;1.00
6146;DHT22;3104;50.348;7.620;2023-06-26T02:55:33;19.80;1.00
6146;DHT22;3104;50.348;7.620;2023-06-26T02:57:59;19.70;1.00
6146;DHT22;3104;50.348;7.620;2023-06-26T03:00:24;19.70;99.90
6146;DHT22;3104;50.348;7.620;2023-06-26T03:02:50;19.70;99.90
6146;DHT22;3104;50.348;7.620;2023-06-26T03:05:16;19.50;1.00
6146;DHT22;3104;50.348;7.620;2023-06-26T03:07:42;19.50;1.00
6146;DHT22;3104;50.348;7.620;2023-06-26T03:10:07;19.50;1.00
6146;DHT22;3104;50.348;7.620;2023-06-26T03:12:33;19.30;1.00
6146;DHT22;3104;50.348;7.620;2023-06-26T03:14:58;19.40;1.00
6146;DHT22;3104;50.348;7.620;2023-06-26T03:17:24;19.40;99.90
6146;DHT22;3104;50.348;7.620;2023-06-26T03:19:50;19.30;1.00
6146;DHT22;3104;50.348;7.620;2023-06-26T03:22:15;19.20;1.00
6146;DHT22;3104;50.348;7.620;2023-06-26T03:24:41;19.20;1.00
6146;DHT22;3104;50.348;7.620;2023-06-26T03:27:07;19.30;1.00
6146;DHT22;3104;50.348;7.620;2023-06-26T03:29:35;19.30;1.00
6146;DHT22;3104;50.348;7.620;2023-06-26T03:32:00;19.50;99.90
6146;DHT22;3104;50.348;7.620;2023-06-26T03:34:26;19.50;57.30
6146;DHT22;3104;50.348;7.620;2023-06-26T03:36:51;19.50;99.90
6146;DHT22;3104;50.348;7.620;2023-06-26T03:39:17;19.50;99.90
6146;DHT22;3104;50.348;7.620;2023-06-26T03:41:42;19.30;1.00
6146;DHT22;3104;50.348;7.620;2023-06-26T03:44:08;19.10;1.00
6146;DHT22;3104;50.348;7.620;2023-06-26T03:46:33;19.20;99.90
6146;DHT22;3104;50.348;7.620;2023-06-26T03:48:59;19.10;1.00
6146;DHT22;3104;50.348;7.620;2023-06-26T03:51:24;19.10;99.20
6146;DHT22;3104;50.348;7.620;2023-06-26T03:53:50;19.30;1.00
6146;DHT22;3104;50.348;7.620;2023-06-26T03:56:16;19.40;99.90
6146;DHT22;3104;50.348;7.620;2023-06-26T03:58:41;19.40;41.40
6146;DHT22;3104;50.348;7.620;2023-06-26T04:01:07;19.60;2.10
6146;DHT22;3104;50.348;7.620;2023-06-26T04:03:33;20.10;1.00
6146;DHT22;3104;50.348;7.620;2023-06-26T04:05:59;20.30;1.00
6146;DHT22;3104;50.348;7.620;2023-06-26T04:08:24;20.60;99.90
6146;DHT22;3104;50.348;7.620;2023-06-26T04:10:53;20.90;99.90
6146;DHT22;3104;50.348;7.620;2023-06-26T04:13:20;20.90;99.90
6146;DHT22;3104;50.348;7.620;2023-06-26T04:15:46;20.80;99.90
6146;DHT22;3104;50.348;7.620;2023-06-26T04:18:11;21.20;99.90
6146;DHT22;3104;50.348;7.620;2023-06-26T04:21:03;21.60;1.00
6146;DHT22;3104;50.348;7.620;2023-06-26T04:23:27;21.70;1.00
6146;DHT22;3104;50.348;7.620;2023-06-26T04:25:52;21.30;1.00
6146;DHT22;3104;50.348;7.620;2023-06-26T04:28:18;20.90;99.90
6146;DHT22;3104;50.348;7.620;2023-06-26T04:30:43;21.40;1.00
6146;DHT22;3104;50.348;7.620;2023-06-26T04:33:09;21.70;1.00
6146;DHT22;3104;50.348;7.620;2023-06-26T04:35:37;21.60;1.00
6146;DHT22;3104;50.348;7.620;2023-06-26T04:38:02;21.70;1.00
6146;DHT22;3104;50.348;7.620;2023-06-26T04:40:28;21.60;1.00
6146;DHT22;3104;50.348;7.620;2023-06-26T04:42:54;21.40;13.20
6146;DHT22;3104;50.348;7.620;2023-06-26T04:45:19;21.60;1.00
6146;DHT22;3104;50.348;7.620;2023-06-26T04:47:45;21.80;1.00
6146;DHT22;3104;50.348;7.620;2023-06-26T04:50:10;21.70;1.00
6146;DHT22;3104;50.348;7.620;2023-06-26T04:52:36;21.80;1.00
6146;DHT22;3104;50.348;7.620;2023-06-26T04:55:01;21.60;46.00
6146;DHT22;3104;50.348;7.620;2023-06-26T04:57:27;21.70;1.00
6146;DHT22;3104;50.348;7.620;2023-06-26T04:59:53;21.50;99.90
6146;DHT22;3104;50.348;7.620;2023-06-26T05:02:18;21.30;99.90
6146;DHT22;3104;50.348;7.620;2023-06-26T05:04:44;21.00;1.00
6146;DHT22;3104;50.348;7.620;2023-06-26T05:07:09;20.70;1.00
6146;DHT22;3104;50.348;7.620;2023-06-26T05:09:35;21.10;1.00
6146;DHT22;3104;50.348;7.620;2023-06-26T05:12:02;21.40;99.90
6146;DHT22;3104;50.348;7.620;2023-06-26T05:14:28;21.50;63.60
6146;DHT22;3104;50.348;7.620;2023-06-26T05:16:53;21.70;1.00
6146;DHT22;3104;50.348;7.620;2023-06-26T05:19:19;21.80;1.00
6146;DHT22;3104;50.348;7.620;2023-06-26T05:21:45;21.80;1.00
6146;DHT22;3104;50.348;7.620;2023-06-26T05:24:13;21.90;1.00
6146;DHT22;3104;50.348;7.620;2023-06-26T05:26:41;21.90;1.00
6146;DHT22;3104;50.348;7.620;2023-06-26T05:29:07;21.70;1.00
6146;DHT22;3104;50.348;7.620;2023-06-26T05:31:33;21.90;1.00
6146;DHT22;3104;50.348;7.620;2023-06-26T05:34:03;21.70;1.00
6146;DHT22;3104;50.348;7.620;2023-06-26T05:36:30;21.60;99.90
6146;DHT22;3104;50.348;7.620;2023-06-26T05:38:58;21.60;99.90
6146;DHT22;3104;50.348;7.620;2023-06-26T05:41:24;21.60;99.90
6146;DHT22;3104;50.348;7.620;2023-06-26T05:43:50;21.50;99.90
6146;DHT22;3104;50.348;7.620;2023-06-26T05:46:16;21.70;99.90
6146;DHT22;3104;50.348;7.620;2023-06-26T05:48:42;21.60;99.90
6146;DHT22;3104;50.348;7.620;2023-06-26T05:51:08;21.20;1.00
6146;DHT22;3104;50.348;7.620;2023-06-26T05:53:34;21.00;1.00
6146;DHT22;3104;50.348;7.620;2023-06-26T05:56:00;21.00;1.00
6146;DHT22;3104;50.348;7.620;2023-06-26T05:58:28;20.90;1.00
6146;DHT22;3104;50.348;7.620;2023-06-26T06:00:55;21.00;1.00
6146;DHT22;3104;50.348;7.620;2023-06-26T06:03:21;21.10;99.90
6146;DHT22;3104;50.348;7.620;2023-06-26T06:05:47;21.10;30.80
6146;DHT22;3104;50.348;7.620;2023-06-26T06:08:12;21.20;1.00
6146;DHT22;3104;50.348;7.620;2023-06-26T06:10:38;21.40;1.00
6146;DHT22;3104;50.348;7.620;2023-06-26T06:13:03;21.60;1.00
6146;DHT22;3104;50.348;7.620;2023-06-26T06:15:29;21.80;1.00
6146;DHT22;3104;50.348;7.620;2023-06-26T06:17:55;21.80;1.00
6146;DHT22;3104;50.348;7.620;2023-06-26T06:20:20;21.60;1.00
6146;DHT22;3104;50.348;7.620;2023-06-26T06:22:46;21.60;1.00
6146;DHT22;3104;50.348;7.620;2023-06-26T06:25:14;21.60;1.00
6146;DHT22;3104;50.348;7.620;2023-06-26T06:27:40;21.60;1.00
6146;DHT22;3104;50.348;7.620;2023-06-26T06:30:06;21.70;1.00
6146;DHT22;3104;50.348;7.620;2023-06-26T06:32:31;21.70;1.00
6146;DHT22;3104;50.348;7.620;2023-06-26T06:34:57;21.60;1.00
6146;DHT22;3104;50.348;7.620;2023-06-26T06:37:22;21.70;1.00
6146;DHT22;3104;50.348;7.620;2023-06-26T06:39:48;21.70;1.00
6146;DHT22;3104;50.348;7.620;2023-06-26T06:42:14;21.80;1.00
6146;DHT22;3104;50.348;7.620;2023-06-26T06:44:39;22.00;1.00
6146;DHT22;3104;50.348;7.620;2023-06-26T06:47:05;22.00;1.00
6146;DHT22;3104;50.348;7.620;2023-06-26T06:49:30;21.90;1.00
6146;DHT22;3104;50.348;7.620;2023-06-26T06:51:56;21.80;1.00
6146;DHT22;3104;50.348;7.620;2023-06-26T06:54:21;21.90;1.00
6146;DHT22;3104;50.348;7.620;2023-06-26T06:56:47;22.00;1.00
6146;DHT22;3104;50.348;7.620;2023-06-26T06:59:13;22.20;1.00
6146;DHT22;3104;50.348;7.620;2023-06-26T07:01:39;22.30;1.00
6146;DHT22;3104;50.348;7.620;2023-06-26T07:04:05;22.20;1.00
6146;DHT22;3104;50.348;7.620;2023-06-26T07:06:30;22.50;19.40
6146;DHT22;3104;50.348;7.620;2023-06-26T07:08:56;22.80;1.00
6146;DHT22;3104;50.348;7.620;2023-06-26T07:11:21;22.80;1.00
6146;DHT22;3104;50.348;7.620;2023-06-26T07:13:47;22.90;1.00
6146;DHT22;3104;50.348;7.620;2023-06-26T07:16:12;22.90;1.00
6146;DHT22;3104;50.348;7.620;2023-06-26T07:18:40;23.00;1.00
6146;DHT22;3104;50.348;7.620;2023-06-26T07:21:06;23.00;1.00
6146;DHT22;3104;50.348;7.620;2023-06-26T07:23:31;23.00;1.00
6146;DHT22;3104;50.348;7.620;2023-06-26T07:25:57;22.90;1.00
6146;DHT22;3104;50.348;7.620;2023-06-26T07:28:22;23.10;1.00
6146;DHT22;3104;50.348;7.620;2023-06-26T07:30:48;23.20;1.00
6146;DHT22;3104;50.348;7.620;2023-06-26T07:33:13;23.10;1.00
6146;DHT22;3104;50.348;7.620;2023-06-26T07:35:40;23.30;1.00
6146;DHT22;3104;50.348;7.620;2023-06-26T07:38:05;23.30;99.90
6146;DHT22;3104;50.348;7.620;2023-06-26T07:40:31;23.20;99.90
6146;DHT22;3104;50.348;7.620;2023-06-26T07:42:57;23.50;99.90
6146;DHT22;3104;50.348;7.620;2023-06-26T07:45:23;23.60;99.90
6146;DHT22;3104;50.348;7.620;2023-06-26T07:47:49;23.70;99.90
6146;DHT22;3104;50.348;7.620;2023-06-26T07:50:15;23.60;99.90
6146;DHT22;3104;50.348;7.620;2023-06-26T07:52:46;23.50;99.90
6146;DHT22;3104;50.348;7.620;2023-06-26T07:55:12;23.50;99.90
6146;DHT22;3104;50.348;7.620;2023-06-26T07:57:38;23.50;99.90
6146;DHT22;3104;50.348;7.620;2023-06-26T08:00:04;23.80;94.20
6146;DHT22;3104;50.348;7.620;2023-06-26T08:02:32;23.90;1.00
6146;DHT22;3104;50.348;7.620;2023-06-26T08:04:57;24.40;1.00
6146;DHT22;3104;50.348;7.620;2023-06-26T08:07:23;24.80;1.00
6146;DHT22;3104;50.348;7.620;2023-06-26T08:09:49;25.00;1.00
6146;DHT22;3104;50.348;7.620;2023-06-26T08:12:14;25.60;1.00
6146;DHT22;3104;50.348;7.620;2023-06-26T08:14:40;25.30;1.00
6146;DHT22;3104;50.348;7.620;2023-06-26T08:17:05;25.00;1.00
6146;DHT22;3104;50.348;7.620;2023-06-26T08:19:31;24.80;1.00
6146;DHT22;3104;50.348;7.620;2023-06-26T08:21:56;24.60;1.00
6146;DHT22;3104;50.348;7.620;2023-06-26T08:24:22;24.30;1.00
6146;DHT22;3104;50.348;7.620;2023-06-26T08:26:48;24.20;1.00
6146;DHT22;3104;50.348;7.620;2023-06-26T08:29:14;24.20;1.00
6146;DHT22;3104;50.348;7.620;2023-06-26T08:31:40;24.20;1.00
6146;DHT22;3104;50.348;7.620;2023-06-26T08:34:06;24.70;1.00
6146;DHT22;3104;50.348;7.620;2023-06-26T08:36:31;25.30;1.00
6146;DHT22;3104;50.348;7.620;2023-06-26T08:38:57;25.40;1.00
6146;DHT22;3104;50.348;7.620;2023-06-26T08:41:23;25.10;1.00
6146;DHT22;3104;50.348;7.620;2023-06-26T08:43:49;25.40;1.00
6146;DHT22;3104;50.348;7.620;2023-06-26T08:46:18;25.60;1.00
6146;DHT22;3104;50.348;7.620;2023-06-26T08:49:08;25.90;1.00
6146;DHT22;3104;50.348;7.620;2023-06-26T08:51:37;25.90;1.00
6146;DHT22;3104;50.348;7.620;2023-06-26T08:54:07;26.00;1.00
6146;DHT22;3104;50.348;7.620;2023-06-26T08:56:41;26.00;1.00
6146;DHT22;3104;50.348;7.620;2023-06-26T08:59:08;26.70;99.90
6146;DHT22;3104;50.348;7.620;2023-06-26T09:01:36;26.50;99.90
6146;DHT22;3104;50.348;7.620;2023-06-26T09:04:02;26.30;1.00
6146;DHT22;3104;50.348;7.620;2023-06-26T09:06:28;26.30;99.90
6146;DHT22;3104;50.348;7.620;2023-06-26T09:08:54;26.10;1.00
6146;DHT22;3104;50.348;7.620;2023-06-26T09:11:20;26.30;1.00
6146;DHT22;3104;50.348;7.620;2023-06-26T09:13:46;26.70;99.90
6146;DHT22;3104;50.348;7.620;2023-06-26T09:16:13;26.80;99.90
6146;DHT22;3104;50.348;7.620;2023-06-26T09:18:40;26.90;99.90
6146;DHT22;3104;50.348;7.620;2023-06-26T09:21:08;27.00;99.90
6146;DHT22;3104;50.348;7.620;2023-06-26T09:23:35;26.60;99.90
6146;DHT22;3104;50.348;7.620;2023-06-26T09:26:05;26.60;99.90
6146;DHT22;3104;50.348;7.620;2023-06-26T09:28:33;26.50;99.90
6146;DHT22;3104;50.348;7.620;2023-06-26T09:31:07;26.70;99.90
6146;DHT22;3104;50.348;7.620;2023-06-26T09:33:37;26.90;99.90
6146;DHT22;3104;50.348;7.620;2023-06-26T09:36:21;26.60;99.90
6146;DHT22;3104;50.348;7.620;2023-06-26T09:38:47;26.50;99.90
6146;DHT22;3104;50.348;7.620;2023-06-26T09:41:16;26.40;99.90
6146;DHT22;3104;50.348;7.620;2023-06-26T09:43:49;26.90;99.90
6146;DHT22;3104;50.348;7.620;2023-06-26T09:46:28;27.00;99.90
6146;DHT22;3104;50.348;7.620;2023-06-26T09:49:06;27.00;99.90
6146;DHT22;3104;50.348;7.620;2023-06-26T09:51:35;27.50;99.90
6146;DHT22;3104;50.348;7.620;2023-06-26T09:54:02;27.50;99.90
6146;DHT22;3104;50.348;7.620;2023-06-26T09:56:28;27.60;99.90
6146;DHT22;3104;50.348;7.620;2023-06-26T09:58:56;27.90;99.90
6146;DHT22;3104;50.348;7.620;2023-06-26T10:01:23;27.90;99.90
6146;DHT22;3104;50.348;7.620;2023-06-26T10:03:49;27.90;99.90
6146;DHT22;3104;50.348;7.620;2023-06-26T10:06:15;27.20;99.90
6146;DHT22;3104;50.348;7.620;2023-06-26T10:08:44;27.10;99.90
6146;DHT22;3104;50.348;7.620;2023-06-26T10:11:16;27.30;99.90
6146;DHT22;3104;50.348;7.620;2023-06-26T10:13:43;27.10;99.90
6146;DHT22;3104;50.348;7.620;2023-06-26T10:16:12;28.00;99.90
6146;DHT22;3104;50.348;7.620;2023-06-26T10:18:39;28.40;99.90
6146;DHT22;3104;50.348;7.620;2023-06-26T10:21:06;28.30;99.90
6146;DHT22;3104;50.348;7.620;2023-06-26T10:23:34;27.30;99.90
6146;DHT22;3104;50.348;7.620;2023-06-26T10:26:01;26.60;99.90
6146;DHT22;3104;50.348;7.620;2023-06-26T10:28:28;26.80;99.90
6146;DHT22;3104;50.348;7.620;2023-06-26T10:30:56;26.60;99.90
6146;DHT22;3104;50.348;7.620;2023-06-26T10:33:23;26.50;99.90
6146;DHT22;3104;50.348;7.620;2023-06-26T10:35:49;26.40;99.90
6146;DHT22;3104;50.348;7.620;2023-06-26T10:38:15;26.00;1.00
6146;DHT22;3104;50.348;7.620;2023-06-26T10:40:47;26.00;99.90
6146;DHT22;3104;50.348;7.620;2023-06-26T10:43:15;25.90;1.00
6146;DHT22;3104;50.348;7.620;2023-06-26T10:45:54;25.40;1.00
6146;DHT22;3104;50.348;7.620;2023-06-26T10:48:21;25.40;1.00
6146;DHT22;3104;50.348;7.620;2023-06-26T10:50:48;25.20;1.00
6146;DHT22;3104;50.348;7.620;2023-06-26T10:56:00;25.00;1.00
6146;DHT22;3104;50.348;7.620;2023-06-26T10:58:27;25.40;1.00
6146;DHT22;3104;50.348;7.620;2023-06-26T11:03:41;25.40;1.00
6146;DHT22;3104;50.348;7.620;2023-06-26T11:06:15;25.10;1.00
6146;DHT22;3104;50.348;7.620;2023-06-26T11:14:18;25.20;1.00
6146;DHT22;3104;50.348;7.620;2023-06-26T11:16:44;25.70;1.00
6146;DHT22;3104;50.348;7.620;2023-06-26T11:19:10;26.00;99.90
6146;DHT22;3104;50.348;7.620;2023-06-26T11:21:39;26.00;99.90
6146;DHT22;3104;50.348;7.620;2023-06-26T11:24:09;26.10;99.90
6146;DHT22;3104;50.348;7.620;2023-06-26T11:26:42;26.80;99.90
6146;DHT22;3104;50.348;7.620;2023-06-26T11:29:08;26.50;99.90
6146;DHT22;3104;50.348;7.620;2023-06-26T11:31:38;26.50;99.90
6146;DHT22;3104;50.348;7.620;2023-06-26T11:34:13;27.10;99.90
6146;DHT22;3104;50.348;7.620;2023-06-26T11:36:40;27.00;99.90
6146;DHT22;3104;50.348;7.620;2023-06-26T11:39:08;26.90;99.90
6146;DHT22;3104;50.348;7.620;2023-06-26T11:41:38;26.80;99.90
6146;DHT22;3104;50.348;7.620;2023-06-26T11:44:09;27.00;99.90
6146;DHT22;3104;50.348;7.620;2023-06-26T11:46:36;26.70;99.90
6146;DHT22;3104;50.348;7.620;2023-06-26T11:49:08;26.70;99.90
6146;DHT22;3104;50.348;7.620;2023-06-26T11:51:34;27.00;99.90
6146;DHT22;3104;50.348;7.620;2023-06-26T11:54:02;27.20;99.90
6146;DHT22;3104;50.348;7.620;2023-06-26T11:56:31;27.80;99.90
6146;DHT22;3104;50.348;7.620;2023-06-26T12:04:04;28.50;99.90
6146;DHT22;3104;50.348;7.620;2023-06-26T12:06:32;29.00;99.90
6146;DHT22;3104;50.348;7.620;2023-06-26T12:09:00;28.40;99.90
6146;DHT22;3104;50.348;7.620;2023-06-26T12:11:27;28.10;99.90
6146;DHT22;3104;50.348;7.620;2023-06-26T12:13:54;27.50;99.90
6146;DHT22;3104;50.348;7.620;2023-06-26T12:16:20;27.20;99.90
6146;DHT22;3104;50.348;7.620;2023-06-26T12:18:46;27.10;99.90
6146;DHT22;3104;50.348;7.620;2023-06-26T12:21:44;26.60;99.90
6146;DHT22;3104;50.348;7.620;2023-06-26T12:24:19;26.40;99.90
6146;DHT22;3104;50.348;7.620;2023-06-26T12:26:49;26.80;99.90
6146;DHT22;3104;50.348;7.620;2023-06-26T12:29:18;26.50;99.90
6146;DHT22;3104;50.348;7.620;2023-06-26T12:31:46;26.70;99.90
6146;DHT22;3104;50.348;7.620;2023-06-26T12:34:15;27.00;99.90
6146;DHT22;3104;50.348;7.620;2023-06-26T12:36:51;27.00;99.90
6146;DHT22;3104;50.348;7.620;2023-06-26T12:39:19;26.70;99.90
6146;DHT22;3104;50.348;7.620;2023-06-26T12:42:03;27.00;99.90
6146;DHT22;3104;50.348;7.620;2023-06-26T12:44:29;26.60;99.90
6146;DHT22;3104;50.348;7.620;2023-06-26T12:46:57;26.70;99.90
6146;DHT22;3104;50.348;7.620;2023-06-26T12:49:37;26.60;99.90
6146;DHT22;3104;50.348;7.620;2023-06-26T12:52:14;27.10;99.90
6146;DHT22;3104;50.348;7.620;2023-06-26T12:54:41;27.20;99.30
6146;DHT22;3104;50.348;7.620;2023-06-26T12:57:07;27.40;99.90
6146;DHT22;3104;50.348;7.620;2023-06-26T12:59:35;27.00;94.30
6146;DHT22;3104;50.348;7.620;2023-06-26T13:02:01;27.10;98.00
6146;DHT22;3104;50.348;7.620;2023-06-26T13:04:27;27.00;93.20
6146;DHT22;3104;50.348;7.620;2023-06-26T13:06:53;27.50;92.60
6146;DHT22;3104;50.348;7.620;2023-06-26T13:09:25;27.40;90.50
6146;DHT22;3104;50.348;7.620;2023-06-26T13:11:52;27.40;88.70
6146;DHT22;3104;50.348;7.620;2023-06-26T13:14:19;27.20;80.20
6146;DHT22;3104;50.348;7.620;2023-06-26T13:16:45;27.30;81.70
6146;DHT22;3104;50.348;7.620;2023-06-26T13:19:10;27.80;83.80
6146;DHT22;3104;50.348;7.620;2023-06-26T13:21:36;27.70;79.40
6146;DHT22;3104;50.348;7.620;2023-06-26T13:24:02;27.20;73.70
6146;DHT22;3104;50.348;7.620;2023-06-26T13:26:32;26.90;76.30
6146;DHT22;3104;50.348;7.620;2023-06-26T13:28:58;26.60;71.50
6146;DHT22;3104;50.348;7.620;2023-06-26T13:31:24;26.90;70.30
6146;DHT22;3104;50.348;7.620;2023-06-26T13:33:49;26.60;68.70
6146;DHT22;3104;50.348;7.620;2023-06-26T13:36:16;26.40;67.10
6146;DHT22;3104;50.348;7.620;2023-06-26T13:38:42;26.50;70.20
6146;DHT22;3104;50.348;7.620;2023-06-26T13:41:08;27.10;69.30
6146;DHT22;3104;50.348;7.620;2023-06-26T13:43:34;27.10;63.10
6146;DHT22;3104;50.348;7.620;2023-06-26T13:46:01;26.90;63.60
6146;DHT22;3104;50.348;7.620;2023-06-26T13:48:26;27.10;61.80
6146;DHT22;3104;50.348;7.620;2023-06-26T13:50:52;27.10;58.10
6146;DHT22;3104;50.348;7.620;2023-06-26T13:53:18;26.30;54.50
6146;DHT22;3104;50.348;7.620;2023-06-26T13:55:44;26.30;54.20
6146;DHT22;3104;50.348;7.620;2023-06-26T13:58:10;26.30;55.40
6146;DHT22;3104;50.348;7.620;2023-06-26T14:00:37;26.20;54.00
6146;DHT22;3104;50.348;7.620;2023-06-26T14:03:07;26.50;56.40
6146;DHT22;3104;50.348;7.620;2023-06-26T14:12:13;26.40;51.90
6146;DHT22;3104;50.348;7.620;2023-06-26T14:14:39;26.70;49.30
6146;DHT22;3104;50.348;7.620;2023-06-26T14:17:05;26.60;45.10
6146;DHT22;3104;50.348;7.620;2023-06-26T14:19:31;26.60;46.30
6146;DHT22;3104;50.348;7.620;2023-06-26T14:21:56;26.10;46.90
6146;DHT22;3104;50.348;7.620;2023-06-26T14:24:22;26.30;47.40
6146;DHT22;3104;50.348;7.620;2023-06-26T14:26:47;26.40;47.50
6146;DHT22;3104;50.348;7.620;2023-06-26T14:29:13;26.20;43.70
6146;DHT22;3104;50.348;7.620;2023-06-26T14:31:42;26.90;50.70
6146;DHT22;3104;50.348;7.620;2023-06-26T14:34:08;27.00;48.40
6146;DHT22;3104;50.348;7.620;2023-06-26T14:36:34;26.90;44.40
6146;DHT22;3104;50.348;7.620;2023-06-26T14:39:00;26.90;40.50
6146;DHT22;3104;50.348;7.620;2023-06-26T14:41:26;26.70;39.20
6146;DHT22;3104;50.348;7.620;2023-06-26T14:43:52;26.80;40.00
6146;DHT22;3104;50.348;7.620;2023-06-26T14:46:18;27.00;39.10
6146;DHT22;3104;50.348;7.620;2023-06-26T14:48:44;27.20;41.10
6146;DHT22;3104;50.348;7.620;2023-06-26T14:51:10;26.80;36.80
6146;DHT22;3104;50.348;7.620;2023-06-26T14:53:38;26.60;36.40
6146;DHT22;3104;50.348;7.620;2023-06-26T14:56:04;26.40;35.70
6146;DHT22;3104;50.348;7.620;2023-06-26T14:58:31;26.70;37.80
6146;DHT22;3104;50.348;7.620;2023-06-26T15:00:56;26.50;31.80
6146;DHT22;3104;50.348;7.620;2023-06-26T15:03:22;26.90;34.10
6146;DHT22;3104;50.348;7.620;2023-06-26T15:05:48;26.50;28.10
6146;DHT22;3104;50.348;7.620;2023-06-26T15:08:14;26.30;25.40
6146;DHT22;3104;50.348;7.620;2023-06-26T15:10:39;26.90;29.70
6146;DHT22;3104;50.348;7.620;2023-06-26T15:13:05;26.70;26.00
6146;DHT22;3104;50.348;7.620;2023-06-26T15:15:31;26.70;25.10
6146;DHT22;3104;50.348;7.620;2023-06-26T15:17:57;26.40;22.00
6146;DHT22;3104;50.348;7.620;2023-06-26T15:20:22;26.70;24.10
6146;DHT22;3104;50.348;7.620;2023-06-26T15:22:48;26.80;22.60
6146;DHT22;3104;50.348;7.620;2023-06-26T15:25:13;26.50;18.00
6146;DHT22;3104;50.348;7.620;2023-06-26T15:27:39;26.40;19.30
6146;DHT22;3104;50.348;7.620;2023-06-26T15:30:05;26.30;15.20
6146;DHT22;3104;50.348;7.620;2023-06-26T15:32:31;25.90;11.10
6146;DHT22;3104;50.348;7.620;2023-06-26T15:34:57;25.80;12.40
6146;DHT22;3104;50.348;7.620;2023-06-26T15:37:23;25.90;11.80
6146;DHT22;3104;50.348;7.620;2023-06-26T15:39:48;26.20;14.50
6146;DHT22;3104;50.348;7.620;2023-06-26T15:42:14;25.90;13.40
6146;DHT22;3104;50.348;7.620;2023-06-26T15:44:39;25.80;16.20
6146;DHT22;3104;50.348;7.620;2023-06-26T15:47:05;26.10;19.20
6146;DHT22;3104;50.348;7.620;2023-06-26T15:49:31;26.40;18.60
6146;DHT22;3104;50.348;7.620;2023-06-26T15:51:56;25.90;15.90
6146;DHT22;3104;50.348;7.620;2023-06-26T15:54:22;26.20;16.60
6146;DHT22;3104;50.348;7.620;2023-06-26T15:56:47;25.80;16.40
6146;DHT22;3104;50.348;7.620;2023-06-26T15:59:13;25.50;14.40
6146;DHT22;3104;50.348;7.620;2023-06-26T16:01:44;25.50;14.70
6146;DHT22;3104;50.348;7.620;2023-06-26T16:04:11;25.40;14.00
6146;DHT22;3104;50.348;7.620;2023-06-26T16:06:37;25.20;14.00
6146;DHT22;3104;50.348;7.620;2023-06-26T16:09:03;25.70;16.60
6146;DHT22;3104;50.348;7.620;2023-06-26T16:11:28;25.30;14.90
6146;DHT22;3104;50.348;7.620;2023-06-26T16:13:54;25.50;16.70
6146;DHT22;3104;50.348;7.620;2023-06-26T16:16:20;25.40;15.10
6146;DHT22;3104;50.348;7.620;2023-06-26T16:18:46;25.40;16.10
6146;DHT22;3104;50.348;7.620;2023-06-26T16:21:11;25.30;16.50
6146;DHT22;3104;50.348;7.620;2023-06-26T16:23:37;25.10;16.80
6146;DHT22;3104;50.348;7.620;2023-06-26T16:26:03;25.10;14.40
6146;DHT22;3104;50.348;7.620;2023-06-26T16:28:28;25.10;16.30
6146;DHT22;3104;50.348;7.620;2023-06-26T16:30:54;24.90;13.70